sensor_id;sensor_type;location;lat;lon;timestamp;P1;durP1;ratioP1;P2;durP2;ratioP2
7017;SDS011;3549;42.162;24.726;2023-05-10T00:00:32;13.13;;;7.50;;
7017;SDS011;3549;42.162;24.726;2023-05-10T00:02:57;10.77;;;7.03;;
7017;SDS011;3549;42.162;24.726;2023-05-10T00:05:22;12.53;;;7.57;;
7017;SDS011;3549;42.162;24.726;2023-05-10T00:07:48;11.80;;;7.40;;
7017;SDS011;3549;42.162;24.726;2023-05-10T00:10:13;12.80;;;7.17;;
7017;SDS011;3549;42.162;24.726;2023-05-10T00:12:39;13.27;;;7.47;;
7017;SDS011;3549;42.162;24.726;2023-05-10T00:15:04;11.20;;;7.40;;
7017;SDS011;3549;42.162;24.726;2023-05-10T00:17:30;11.20;;;7.00;;
7017;SDS011;3549;42.162;24.726;2023-05-10T00:19:55;12.17;;;7.07;;
7017;SDS011;3549;42.162;24.726;2023-05-10T00:22:21;12.97;;;7.70;;
7017;SDS011;3549;42.162;24.726;2023-05-10T00:24:46;13.50;;;7.40;;
7017;SDS011;3549;42.162;24.726;2023-05-10T00:27:12;11.30;;;7.23;;
7017;SDS011;3549;42.162;24.726;2023-05-10T00:29:37;13.93;;;8.50;;
7017;SDS011;3549;42.162;24.726;2023-05-10T00:32:03;13.40;;;8.00;;
7017;SDS011;3549;42.162;24.726;2023-05-10T00:34:28;12.67;;;7.87;;
7017;SDS011;3549;42.162;24.726;2023-05-10T00:36:54;15.40;;;8.70;;
7017;SDS011;3549;42.162;24.726;2023-05-10T00:39:19;16.17;;;8.80;;
7017;SDS011;3549;42.162;24.726;2023-05-10T00:41:45;14.63;;;8.60;;
7017;SDS011;3549;42.162;24.726;2023-05-10T00:44:10;14.20;;;8.70;;
7017;SDS011;3549;42.162;24.726;2023-05-10T00:46:36;12.40;;;8.03;;
7017;SDS011;3549;42.162;24.726;2023-05-10T00:49:01;14.13;;;8.07;;
7017;SDS011;3549;42.162;24.726;2023-05-10T00:51:27;11.00;;;7.60;;
7017;SDS011;3549;42.162;24.726;2023-05-10T00:53:53;13.93;;;8.17;;
7017;SDS011;3549;42.162;24.726;2023-05-10T00:56:18;18.60;;;8.90;;
7017;SDS011;3549;42.162;24.726;2023-05-10T00:58:47;15.00;;;8.70;;
7017;SDS011;3549;42.162;24.726;2023-05-10T01:01:13;14.83;;;8.60;;
7017;SDS011;3549;42.162;24.726;2023-05-10T01:03:39;17.53;;;8.50;;
7017;SDS011;3549;42.162;24.726;2023-05-10T01:06:05;13.53;;;8.60;;
7017;SDS011;3549;42.162;24.726;2023-05-10T01:08:30;16.47;;;9.07;;
7017;SDS011;3549;42.162;24.726;2023-05-10T01:10:56;17.33;;;9.43;;
7017;SDS011;3549;42.162;24.726;2023-05-10T01:13:43;17.60;;;9.37;;
7017;SDS011;3549;42.162;24.726;2023-05-10T01:16:10;17.73;;;10.17;;
7017;SDS011;3549;42.162;24.726;2023-05-10T01:18:38;19.00;;;11.00;;
7017;SDS011;3549;42.162;24.726;2023-05-10T01:26:25;17.53;;;11.53;;
7017;SDS011;3549;42.162;24.726;2023-05-10T01:29:23;21.23;;;12.10;;
7017;SDS011;3549;42.162;24.726;2023-05-10T01:32:09;19.83;;;12.07;;
7017;SDS011;3549;42.162;24.726;2023-05-10T01:34:53;20.90;;;11.17;;
7017;SDS011;3549;42.162;24.726;2023-05-10T01:37:26;21.57;;;11.70;;
7017;SDS011;3549;42.162;24.726;2023-05-10T01:40:13;21.53;;;11.63;;
7017;SDS011;3549;42.162;24.726;2023-05-10T01:42:46;20.70;;;11.47;;
7017;SDS011;3549;42.162;24.726;2023-05-10T01:45:20;18.40;;;11.57;;
7017;SDS011;3549;42.162;24.726;2023-05-10T01:48:13;20.13;;;12.17;;
7017;SDS011;3549;42.162;24.726;2023-05-10T01:50:40;23.83;;;11.63;;
7017;SDS011;3549;42.162;24.726;2023-05-10T01:53:09;23.57;;;12.13;;
7017;SDS011;3549;42.162;24.726;2023-05-10T01:55:39;25.73;;;12.30;;
7017;SDS011;3549;42.162;24.726;2023-05-10T01:58:13;19.27;;;12.27;;
7017;SDS011;3549;42.162;24.726;2023-05-10T02:00:40;22.63;;;12.20;;
7017;SDS011;3549;42.162;24.726;2023-05-10T02:03:09;19.50;;;12.27;;
7017;SDS011;3549;42.162;24.726;2023-05-10T02:05:36;25.20;;;11.97;;
7017;SDS011;3549;42.162;24.726;2023-05-10T02:08:05;22.57;;;11.90;;
7017;SDS011;3549;42.162;24.726;2023-05-10T02:10:32;21.40;;;12.13;;
7017;SDS011;3549;42.162;24.726;2023-05-10T02:13:00;19.17;;;11.20;;
7017;SDS011;3549;42.162;24.726;2023-05-10T02:15:27;19.37;;;10.70;;
7017;SDS011;3549;42.162;24.726;2023-05-10T02:17:55;18.00;;;10.43;;
7017;SDS011;3549;42.162;24.726;2023-05-10T02:20:23;21.63;;;11.07;;
7017;SDS011;3549;42.162;24.726;2023-05-10T02:22:50;18.90;;;11.30;;
7017;SDS011;3549;42.162;24.726;2023-05-10T02:25:17;19.60;;;11.07;;
7017;SDS011;3549;42.162;24.726;2023-05-10T02:27:46;19.50;;;11.03;;
7017;SDS011;3549;42.162;24.726;2023-05-10T02:30:13;19.17;;;10.53;;
7017;SDS011;3549;42.162;24.726;2023-05-10T02:32:39;20.80;;;12.47;;
7017;SDS011;3549;42.162;24.726;2023-05-10T02:35:06;20.50;;;11.60;;
7017;SDS011;3549;42.162;24.726;2023-05-10T02:37:33;20.20;;;11.70;;
7017;SDS011;3549;42.162;24.726;2023-05-10T02:40:00;22.63;;;12.40;;
7017;SDS011;3549;42.162;24.726;2023-05-10T02:42:28;27.40;;;12.20;;
7017;SDS011;3549;42.162;24.726;2023-05-10T02:44:59;22.43;;;11.67;;
7017;SDS011;3549;42.162;24.726;2023-05-10T02:47:27;20.23;;;12.03;;
7017;SDS011;3549;42.162;24.726;2023-05-10T02:49:53;21.73;;;11.63;;
7017;SDS011;3549;42.162;24.726;2023-05-10T02:52:21;18.50;;;12.00;;
7017;SDS011;3549;42.162;24.726;2023-05-10T02:54:49;22.70;;;12.17;;
7017;SDS011;3549;42.162;24.726;2023-05-10T02:57:17;23.10;;;12.40;;
7017;SDS011;3549;42.162;24.726;2023-05-10T02:59:50;21.07;;;12.53;;
7017;SDS011;3549;42.162;24.726;2023-05-10T03:02:15;22.37;;;11.53;;
7017;SDS011;3549;42.162;24.726;2023-05-10T03:04:41;20.17;;;11.83;;
7017;SDS011;3549;42.162;24.726;2023-05-10T03:07:06;19.17;;;11.30;;
7017;SDS011;3549;42.162;24.726;2023-05-10T03:09:32;23.43;;;12.13;;
7017;SDS011;3549;42.162;24.726;2023-05-10T03:12:07;20.03;;;10.63;;
7017;SDS011;3549;42.162;24.726;2023-05-10T03:17:15;20.70;;;11.47;;
7017;SDS011;3549;42.162;24.726;2023-05-10T03:19:54;20.10;;;11.70;;
7017;SDS011;3549;42.162;24.726;2023-05-10T03:22:23;19.40;;;11.23;;
7017;SDS011;3549;42.162;24.726;2023-05-10T03:24:52;18.73;;;10.23;;
7017;SDS011;3549;42.162;24.726;2023-05-10T03:27:20;20.60;;;10.70;;
7017;SDS011;3549;42.162;24.726;2023-05-10T03:29:47;22.67;;;10.67;;
7017;SDS011;3549;42.162;24.726;2023-05-10T03:32:13;19.63;;;11.13;;
7017;SDS011;3549;42.162;24.726;2023-05-10T03:34:42;22.40;;;11.93;;
7017;SDS011;3549;42.162;24.726;2023-05-10T03:37:10;18.37;;;10.93;;
7017;SDS011;3549;42.162;24.726;2023-05-10T03:39:36;17.10;;;10.40;;
7017;SDS011;3549;42.162;24.726;2023-05-10T03:42:01;19.07;;;10.07;;
7017;SDS011;3549;42.162;24.726;2023-05-10T03:44:27;20.33;;;10.73;;
7017;SDS011;3549;42.162;24.726;2023-05-10T03:46:52;19.67;;;10.53;;
7017;SDS011;3549;42.162;24.726;2023-05-10T03:49:17;20.67;;;11.30;;
7017;SDS011;3549;42.162;24.726;2023-05-10T03:51:43;19.67;;;10.67;;
7017;SDS011;3549;42.162;24.726;2023-05-10T03:54:08;18.20;;;10.33;;
7017;SDS011;3549;42.162;24.726;2023-05-10T03:56:34;19.83;;;10.40;;
7017;SDS011;3549;42.162;24.726;2023-05-10T03:58:59;16.10;;;9.63;;
7017;SDS011;3549;42.162;24.726;2023-05-10T04:01:25;17.20;;;10.37;;
7017;SDS011;3549;42.162;24.726;2023-05-10T04:03:50;17.60;;;10.00;;
7017;SDS011;3549;42.162;24.726;2023-05-10T04:06:16;19.17;;;10.63;;
7017;SDS011;3549;42.162;24.726;2023-05-10T04:08:41;19.00;;;10.30;;
7017;SDS011;3549;42.162;24.726;2023-05-10T04:13:36;20.43;;;10.40;;
7017;SDS011;3549;42.162;24.726;2023-05-10T04:16:02;19.73;;;11.07;;
7017;SDS011;3549;42.162;24.726;2023-05-10T04:18:27;18.27;;;10.30;;
7017;SDS011;3549;42.162;24.726;2023-05-10T04:20:53;18.93;;;10.17;;
7017;SDS011;3549;42.162;24.726;2023-05-10T04:23:18;18.70;;;10.70;;
7017;SDS011;3549;42.162;24.726;2023-05-10T04:25:44;19.10;;;10.40;;
7017;SDS011;3549;42.162;24.726;2023-05-10T04:28:09;21.97;;;10.63;;
7017;SDS011;3549;42.162;24.726;2023-05-10T04:30:35;17.67;;;10.00;;
7017;SDS011;3549;42.162;24.726;2023-05-10T04:33:00;17.17;;;10.40;;
7017;SDS011;3549;42.162;24.726;2023-05-10T04:35:27;22.80;;;10.50;;
7017;SDS011;3549;42.162;24.726;2023-05-10T04:37:53;21.37;;;11.73;;
7017;SDS011;3549;42.162;24.726;2023-05-10T04:40:18;17.57;;;10.50;;
7017;SDS011;3549;42.162;24.726;2023-05-10T04:42:44;19.00;;;10.63;;
7017;SDS011;3549;42.162;24.726;2023-05-10T04:45:10;18.73;;;10.43;;
7017;SDS011;3549;42.162;24.726;2023-05-10T04:47:35;17.13;;;9.67;;
7017;SDS011;3549;42.162;24.726;2023-05-10T04:50:02;16.53;;;9.60;;
7017;SDS011;3549;42.162;24.726;2023-05-10T04:52:28;17.63;;;9.83;;
7017;SDS011;3549;42.162;24.726;2023-05-10T04:54:53;17.60;;;10.03;;
7017;SDS011;3549;42.162;24.726;2023-05-10T04:57:18;17.20;;;9.77;;
7017;SDS011;3549;42.162;24.726;2023-05-10T04:59:44;18.90;;;9.73;;
7017;SDS011;3549;42.162;24.726;2023-05-10T05:02:09;16.70;;;9.20;;
7017;SDS011;3549;42.162;24.726;2023-05-10T05:04:35;15.07;;;9.67;;
7017;SDS011;3549;42.162;24.726;2023-05-10T05:07:00;20.80;;;10.63;;
7017;SDS011;3549;42.162;24.726;2023-05-10T05:09:25;19.77;;;10.30;;
7017;SDS011;3549;42.162;24.726;2023-05-10T05:11:51;19.20;;;11.03;;
7017;SDS011;3549;42.162;24.726;2023-05-10T05:14:16;23.17;;;9.90;;
7017;SDS011;3549;42.162;24.726;2023-05-10T05:16:41;18.50;;;10.47;;
7017;SDS011;3549;42.162;24.726;2023-05-10T05:19:07;15.17;;;9.43;;
7017;SDS011;3549;42.162;24.726;2023-05-10T05:21:32;17.83;;;10.23;;
7017;SDS011;3549;42.162;24.726;2023-05-10T05:23:58;14.90;;;9.60;;
7017;SDS011;3549;42.162;24.726;2023-05-10T05:26:23;16.27;;;9.33;;
7017;SDS011;3549;42.162;24.726;2023-05-10T05:28:48;17.67;;;10.70;;
7017;SDS011;3549;42.162;24.726;2023-05-10T05:31:17;16.03;;;9.10;;
7017;SDS011;3549;42.162;24.726;2023-05-10T05:33:42;18.40;;;9.90;;
7017;SDS011;3549;42.162;24.726;2023-05-10T05:36:08;19.80;;;9.47;;
7017;SDS011;3549;42.162;24.726;2023-05-10T05:38:34;15.73;;;9.77;;
7017;SDS011;3549;42.162;24.726;2023-05-10T05:40:59;16.17;;;9.70;;
7017;SDS011;3549;42.162;24.726;2023-05-10T05:43:25;16.17;;;9.03;;
7017;SDS011;3549;42.162;24.726;2023-05-10T05:45:51;16.17;;;9.57;;
7017;SDS011;3549;42.162;24.726;2023-05-10T05:48:18;17.30;;;8.83;;
7017;SDS011;3549;42.162;24.726;2023-05-10T05:50:43;17.60;;;9.00;;
7017;SDS011;3549;42.162;24.726;2023-05-10T05:53:09;17.00;;;8.77;;
7017;SDS011;3549;42.162;24.726;2023-05-10T05:55:34;16.73;;;9.37;;
7017;SDS011;3549;42.162;24.726;2023-05-10T05:58:00;14.50;;;8.63;;
7017;SDS011;3549;42.162;24.726;2023-05-10T06:00:25;15.67;;;8.93;;
7017;SDS011;3549;42.162;24.726;2023-05-10T06:02:51;16.57;;;9.00;;
7017;SDS011;3549;42.162;24.726;2023-05-10T06:05:16;18.87;;;8.50;;
7017;SDS011;3549;42.162;24.726;2023-05-10T06:07:42;15.47;;;8.20;;
7017;SDS011;3549;42.162;24.726;2023-05-10T06:10:08;14.30;;;8.90;;
7017;SDS011;3549;42.162;24.726;2023-05-10T06:12:33;17.03;;;9.20;;
7017;SDS011;3549;42.162;24.726;2023-05-10T06:14:59;15.77;;;8.90;;
7017;SDS011;3549;42.162;24.726;2023-05-10T06:17:24;16.33;;;8.13;;
7017;SDS011;3549;42.162;24.726;2023-05-10T06:19:50;12.47;;;8.13;;
7017;SDS011;3549;42.162;24.726;2023-05-10T06:22:15;13.80;;;8.10;;
7017;SDS011;3549;42.162;24.726;2023-05-10T06:24:41;16.27;;;8.30;;
7017;SDS011;3549;42.162;24.726;2023-05-10T06:27:06;13.63;;;8.37;;
7017;SDS011;3549;42.162;24.726;2023-05-10T06:29:32;15.13;;;8.37;;
7017;SDS011;3549;42.162;24.726;2023-05-10T06:31:58;15.27;;;7.97;;
7017;SDS011;3549;42.162;24.726;2023-05-10T06:34:23;13.97;;;8.53;;
7017;SDS011;3549;42.162;24.726;2023-05-10T06:36:49;18.33;;;9.10;;
7017;SDS011;3549;42.162;24.726;2023-05-10T06:39:14;14.77;;;8.27;;
7017;SDS011;3549;42.162;24.726;2023-05-10T06:41:40;15.80;;;7.90;;
7017;SDS011;3549;42.162;24.726;2023-05-10T06:44:06;16.13;;;8.33;;
7017;SDS011;3549;42.162;24.726;2023-05-10T06:46:32;13.97;;;8.17;;
7017;SDS011;3549;42.162;24.726;2023-05-10T06:48:57;17.70;;;8.53;;
7017;SDS011;3549;42.162;24.726;2023-05-10T06:51:23;12.10;;;7.73;;
7017;SDS011;3549;42.162;24.726;2023-05-10T06:53:48;13.67;;;7.80;;
7017;SDS011;3549;42.162;24.726;2023-05-10T06:56:14;13.30;;;7.60;;
7017;SDS011;3549;42.162;24.726;2023-05-10T06:58:39;16.13;;;7.90;;
7017;SDS011;3549;42.162;24.726;2023-05-10T07:01:05;12.43;;;8.07;;
7017;SDS011;3549;42.162;24.726;2023-05-10T07:03:30;14.70;;;7.87;;
7017;SDS011;3549;42.162;24.726;2023-05-10T07:06:00;11.07;;;7.20;;
7017;SDS011;3549;42.162;24.726;2023-05-10T07:08:32;12.67;;;7.33;;
7017;SDS011;3549;42.162;24.726;2023-05-10T07:11:01;14.70;;;7.90;;
7017;SDS011;3549;42.162;24.726;2023-05-10T07:13:28;18.83;;;8.70;;
7017;SDS011;3549;42.162;24.726;2023-05-10T07:15:55;11.87;;;7.20;;
7017;SDS011;3549;42.162;24.726;2023-05-10T07:18:20;16.80;;;7.73;;
7017;SDS011;3549;42.162;24.726;2023-05-10T07:20:46;14.37;;;8.33;;
7017;SDS011;3549;42.162;24.726;2023-05-10T07:23:11;12.87;;;7.67;;
7017;SDS011;3549;42.162;24.726;2023-05-10T07:25:37;12.23;;;7.70;;
7017;SDS011;3549;42.162;24.726;2023-05-10T07:28:02;13.77;;;7.47;;
7017;SDS011;3549;42.162;24.726;2023-05-10T07:30:28;13.57;;;7.37;;
7017;SDS011;3549;42.162;24.726;2023-05-10T07:32:53;13.93;;;7.70;;
7017;SDS011;3549;42.162;24.726;2023-05-10T07:35:19;14.70;;;7.47;;
7017;SDS011;3549;42.162;24.726;2023-05-10T07:37:44;15.47;;;7.87;;
7017;SDS011;3549;42.162;24.726;2023-05-10T07:40:10;11.97;;;7.33;;
7017;SDS011;3549;42.162;24.726;2023-05-10T07:42:35;12.83;;;7.90;;
7017;SDS011;3549;42.162;24.726;2023-05-10T07:45:01;14.47;;;7.50;;
7017;SDS011;3549;42.162;24.726;2023-05-10T07:47:26;9.97;;;7.07;;
7017;SDS011;3549;42.162;24.726;2023-05-10T07:49:52;11.63;;;6.90;;
7017;SDS011;3549;42.162;24.726;2023-05-10T07:52:17;14.03;;;7.10;;
7017;SDS011;3549;42.162;24.726;2023-05-10T07:54:43;12.03;;;7.17;;
7017;SDS011;3549;42.162;24.726;2023-05-10T07:57:09;8.80;;;6.60;;
7017;SDS011;3549;42.162;24.726;2023-05-10T07:59:34;11.93;;;6.37;;
7017;SDS011;3549;42.162;24.726;2023-05-10T08:02:00;13.53;;;6.80;;
7017;SDS011;3549;42.162;24.726;2023-05-10T08:04:25;11.93;;;7.13;;
7017;SDS011;3549;42.162;24.726;2023-05-10T08:06:51;12.73;;;6.53;;
7017;SDS011;3549;42.162;24.726;2023-05-10T08:09:16;9.43;;;6.20;;
7017;SDS011;3549;42.162;24.726;2023-05-10T08:11:42;11.07;;;6.70;;
7017;SDS011;3549;42.162;24.726;2023-05-10T08:14:08;11.23;;;6.30;;
7017;SDS011;3549;42.162;24.726;2023-05-10T08:16:33;10.33;;;6.17;;
7017;SDS011;3549;42.162;24.726;2023-05-10T08:18:59;12.13;;;6.10;;
7017;SDS011;3549;42.162;24.726;2023-05-10T08:21:24;9.53;;;6.40;;
7017;SDS011;3549;42.162;24.726;2023-05-10T08:23:51;10.00;;;6.00;;
7017;SDS011;3549;42.162;24.726;2023-05-10T08:26:16;9.23;;;6.03;;
7017;SDS011;3549;42.162;24.726;2023-05-10T08:28:42;9.40;;;5.77;;
7017;SDS011;3549;42.162;24.726;2023-05-10T08:31:07;10.83;;;6.43;;
7017;SDS011;3549;42.162;24.726;2023-05-10T08:33:32;8.27;;;5.90;;
7017;SDS011;3549;42.162;24.726;2023-05-10T08:35:58;9.73;;;5.80;;
7017;SDS011;3549;42.162;24.726;2023-05-10T08:38:23;9.40;;;5.57;;
7017;SDS011;3549;42.162;24.726;2023-05-10T08:40:49;10.23;;;6.60;;
7017;SDS011;3549;42.162;24.726;2023-05-10T08:43:21;11.97;;;6.67;;
7017;SDS011;3549;42.162;24.726;2023-05-10T08:45:48;12.87;;;6.87;;
7017;SDS011;3549;42.162;24.726;2023-05-10T08:48:15;9.00;;;6.30;;
7017;SDS011;3549;42.162;24.726;2023-05-10T08:50:41;8.40;;;5.67;;
7017;SDS011;3549;42.162;24.726;2023-05-10T08:53:11;7.03;;;5.73;;
7017;SDS011;3549;42.162;24.726;2023-05-10T08:55:38;16.17;;;6.20;;
7017;SDS011;3549;42.162;24.726;2023-05-10T08:58:05;9.17;;;6.13;;
7017;SDS011;3549;42.162;24.726;2023-05-10T09:00:31;8.97;;;6.20;;
7017;SDS011;3549;42.162;24.726;2023-05-10T09:02:58;10.50;;;5.97;;
7017;SDS011;3549;42.162;24.726;2023-05-10T09:05:24;12.37;;;6.60;;
7017;SDS011;3549;42.162;24.726;2023-05-10T09:07:50;11.27;;;6.67;;
7017;SDS011;3549;42.162;24.726;2023-05-10T09:10:16;13.33;;;6.87;;
7017;SDS011;3549;42.162;24.726;2023-05-10T09:12:42;11.37;;;7.00;;
7017;SDS011;3549;42.162;24.726;2023-05-10T09:15:10;10.50;;;6.10;;
7017;SDS011;3549;42.162;24.726;2023-05-10T09:17:37;10.23;;;6.27;;
7017;SDS011;3549;42.162;24.726;2023-05-10T09:20:05;11.43;;;6.73;;
7017;SDS011;3549;42.162;24.726;2023-05-10T09:22:31;11.80;;;6.20;;
7017;SDS011;3549;42.162;24.726;2023-05-10T09:25:05;10.70;;;6.40;;
7017;SDS011;3549;42.162;24.726;2023-05-10T09:27:36;9.73;;;6.47;;
7017;SDS011;3549;42.162;24.726;2023-05-10T09:30:03;8.63;;;6.57;;
7017;SDS011;3549;42.162;24.726;2023-05-10T09:35:25;9.27;;;6.30;;
7017;SDS011;3549;42.162;24.726;2023-05-10T09:37:53;10.77;;;6.77;;
7017;SDS011;3549;42.162;24.726;2023-05-10T09:40:20;11.83;;;6.33;;
7017;SDS011;3549;42.162;24.726;2023-05-10T09:42:57;9.77;;;6.33;;
7017;SDS011;3549;42.162;24.726;2023-05-10T09:45:23;9.70;;;6.30;;
7017;SDS011;3549;42.162;24.726;2023-05-10T09:47:51;9.50;;;6.33;;
7017;SDS011;3549;42.162;24.726;2023-05-10T09:50:16;9.60;;;6.87;;
7017;SDS011;3549;42.162;24.726;2023-05-10T09:52:46;25.33;;;14.10;;
7017;SDS011;3549;42.162;24.726;2023-05-10T09:55:17;12.47;;;6.03;;
7017;SDS011;3549;42.162;24.726;2023-05-10T09:57:47;10.13;;;6.20;;
7017;SDS011;3549;42.162;24.726;2023-05-10T10:00:19;9.27;;;6.57;;
7017;SDS011;3549;42.162;24.726;2023-05-10T10:02:46;10.70;;;6.70;;
7017;SDS011;3549;42.162;24.726;2023-05-10T10:08:11;10.30;;;6.70;;
7017;SDS011;3549;42.162;24.726;2023-05-10T10:10:38;12.73;;;6.60;;
7017;SDS011;3549;42.162;24.726;2023-05-10T10:13:27;9.83;;;6.30;;
7017;SDS011;3549;42.162;24.726;2023-05-10T10:15:53;8.07;;;6.43;;
7017;SDS011;3549;42.162;24.726;2023-05-10T10:18:19;9.67;;;6.73;;
7017;SDS011;3549;42.162;24.726;2023-05-10T10:20:48;9.77;;;6.33;;
7017;SDS011;3549;42.162;24.726;2023-05-10T10:23:14;10.23;;;6.63;;
7017;SDS011;3549;42.162;24.726;2023-05-10T10:25:40;13.43;;;6.70;;
7017;SDS011;3549;42.162;24.726;2023-05-10T10:28:08;11.00;;;6.60;;
7017;SDS011;3549;42.162;24.726;2023-05-10T10:30:45;8.97;;;6.90;;
7017;SDS011;3549;42.162;24.726;2023-05-10T10:33:18;9.00;;;7.10;;
7017;SDS011;3549;42.162;24.726;2023-05-10T10:35:59;8.37;;;6.67;;
7017;SDS011;3549;42.162;24.726;2023-05-10T10:38:35;9.47;;;6.70;;
7017;SDS011;3549;42.162;24.726;2023-05-10T10:41:32;10.73;;;6.83;;
7017;SDS011;3549;42.162;24.726;2023-05-10T10:52:30;10.07;;;6.80;;
7017;SDS011;3549;42.162;24.726;2023-05-10T10:54:59;13.37;;;7.27;;
7017;SDS011;3549;42.162;24.726;2023-05-10T10:57:27;8.60;;;6.50;;
7017;SDS011;3549;42.162;24.726;2023-05-10T11:02:46;8.33;;;6.43;;
7017;SDS011;3549;42.162;24.726;2023-05-10T11:08:01;10.47;;;7.00;;
7017;SDS011;3549;42.162;24.726;2023-05-10T11:10:48;10.70;;;6.80;;
7017;SDS011;3549;42.162;24.726;2023-05-10T11:13:16;8.60;;;6.90;;
7017;SDS011;3549;42.162;24.726;2023-05-10T11:15:53;7.90;;;7.10;;
7017;SDS011;3549;42.162;24.726;2023-05-10T11:18:28;12.67;;;7.43;;
7017;SDS011;3549;42.162;24.726;2023-05-10T11:26:09;10.03;;;6.73;;
7017;SDS011;3549;42.162;24.726;2023-05-10T11:28:42;9.77;;;7.47;;
7017;SDS011;3549;42.162;24.726;2023-05-10T11:31:09;9.27;;;7.33;;
7017;SDS011;3549;42.162;24.726;2023-05-10T11:33:51;8.73;;;7.67;;
7017;SDS011;3549;42.162;24.726;2023-05-10T11:36:24;9.90;;;7.17;;
7017;SDS011;3549;42.162;24.726;2023-05-10T11:38:51;9.23;;;6.70;;
7017;SDS011;3549;42.162;24.726;2023-05-10T11:41:17;7.73;;;6.90;;
7017;SDS011;3549;42.162;24.726;2023-05-10T11:43:49;9.57;;;7.17;;
7017;SDS011;3549;42.162;24.726;2023-05-10T11:46:15;8.60;;;6.20;;
7017;SDS011;3549;42.162;24.726;2023-05-10T11:48:43;7.80;;;6.23;;
7017;SDS011;3549;42.162;24.726;2023-05-10T11:51:09;10.93;;;6.60;;
7017;SDS011;3549;42.162;24.726;2023-05-10T11:53:35;8.27;;;6.40;;
7017;SDS011;3549;42.162;24.726;2023-05-10T11:56:08;7.93;;;6.60;;
7017;SDS011;3549;42.162;24.726;2023-05-10T11:58:35;8.40;;;7.00;;
7017;SDS011;3549;42.162;24.726;2023-05-10T12:01:03;7.73;;;6.40;;
7017;SDS011;3549;42.162;24.726;2023-05-10T12:03:30;8.03;;;7.17;;
7017;SDS011;3549;42.162;24.726;2023-05-10T12:05:56;8.20;;;7.40;;
7017;SDS011;3549;42.162;24.726;2023-05-10T12:08:26;9.37;;;7.50;;
7017;SDS011;3549;42.162;24.726;2023-05-10T12:10:52;10.77;;;7.20;;
7017;SDS011;3549;42.162;24.726;2023-05-10T12:13:19;10.20;;;7.80;;
7017;SDS011;3549;42.162;24.726;2023-05-10T12:15:46;9.80;;;7.50;;
7017;SDS011;3549;42.162;24.726;2023-05-10T12:18:12;8.53;;;7.07;;
7017;SDS011;3549;42.162;24.726;2023-05-10T12:20:38;8.23;;;7.40;;
7017;SDS011;3549;42.162;24.726;2023-05-10T12:23:05;8.57;;;7.03;;
7017;SDS011;3549;42.162;24.726;2023-05-10T12:25:33;8.33;;;7.20;;
7017;SDS011;3549;42.162;24.726;2023-05-10T12:28:02;9.90;;;7.30;;
7017;SDS011;3549;42.162;24.726;2023-05-10T12:30:30;9.57;;;7.97;;
7017;SDS011;3549;42.162;24.726;2023-05-10T12:33:12;12.60;;;7.27;;
7017;SDS011;3549;42.162;24.726;2023-05-10T12:35:58;9.07;;;8.00;;
7017;SDS011;3549;42.162;24.726;2023-05-10T12:38:33;13.33;;;8.80;;
7017;SDS011;3549;42.162;24.726;2023-05-10T12:41:03;9.57;;;7.97;;
7017;SDS011;3549;42.162;24.726;2023-05-10T12:43:30;9.03;;;8.00;;
7017;SDS011;3549;42.162;24.726;2023-05-10T12:45:55;11.23;;;8.93;;
7017;SDS011;3549;42.162;24.726;2023-05-10T12:48:21;10.73;;;8.90;;
7017;SDS011;3549;42.162;24.726;2023-05-10T12:50:47;12.07;;;9.40;;
7017;SDS011;3549;42.162;24.726;2023-05-10T12:53:13;11.53;;;8.60;;
7017;SDS011;3549;42.162;24.726;2023-05-10T12:55:40;10.13;;;8.40;;
7017;SDS011;3549;42.162;24.726;2023-05-10T12:58:06;10.73;;;8.67;;
7017;SDS011;3549;42.162;24.726;2023-05-10T13:00:32;9.37;;;8.40;;
7017;SDS011;3549;42.162;24.726;2023-05-10T13:02:57;9.60;;;8.60;;
7017;SDS011;3549;42.162;24.726;2023-05-10T13:05:22;12.03;;;9.40;;
7017;SDS011;3549;42.162;24.726;2023-05-10T13:07:48;11.00;;;9.90;;
7017;SDS011;3549;42.162;24.726;2023-05-10T13:10:13;9.90;;;8.90;;
7017;SDS011;3549;42.162;24.726;2023-05-10T13:12:39;10.00;;;9.00;;
7017;SDS011;3549;42.162;24.726;2023-05-10T13:15:04;10.50;;;9.40;;
7017;SDS011;3549;42.162;24.726;2023-05-10T13:17:31;11.37;;;9.70;;
7017;SDS011;3549;42.162;24.726;2023-05-10T13:19:57;11.80;;;9.43;;
7017;SDS011;3549;42.162;24.726;2023-05-10T13:22:22;9.93;;;8.93;;
7017;SDS011;3549;42.162;24.726;2023-05-10T13:24:47;9.27;;;8.10;;
7017;SDS011;3549;42.162;24.726;2023-05-10T13:27:13;9.10;;;8.10;;
7017;SDS011;3549;42.162;24.726;2023-05-10T13:29:38;9.63;;;7.90;;
7017;SDS011;3549;42.162;24.726;2023-05-10T13:32:04;9.63;;;8.40;;
7017;SDS011;3549;42.162;24.726;2023-05-10T13:34:29;9.33;;;7.77;;
7017;SDS011;3549;42.162;24.726;2023-05-10T13:36:55;10.50;;;8.17;;
7017;SDS011;3549;42.162;24.726;2023-05-10T13:39:21;9.97;;;8.33;;
7017;SDS011;3549;42.162;24.726;2023-05-10T13:41:47;14.87;;;9.03;;
7017;SDS011;3549;42.162;24.726;2023-05-10T13:44:13;10.37;;;8.90;;
7017;SDS011;3549;42.162;24.726;2023-05-10T13:46:40;11.03;;;9.03;;
7017;SDS011;3549;42.162;24.726;2023-05-10T13:49:05;10.20;;;8.97;;
7017;SDS011;3549;42.162;24.726;2023-05-10T13:51:31;13.73;;;10.00;;
7017;SDS011;3549;42.162;24.726;2023-05-10T13:53:58;10.87;;;9.20;;
7017;SDS011;3549;42.162;24.726;2023-05-10T13:56:36;12.17;;;9.60;;
7017;SDS011;3549;42.162;24.726;2023-05-10T13:59:01;14.00;;;10.90;;
7017;SDS011;3549;42.162;24.726;2023-05-10T14:01:27;14.60;;;10.50;;
7017;SDS011;3549;42.162;24.726;2023-05-10T14:03:52;13.97;;;10.27;;
7017;SDS011;3549;42.162;24.726;2023-05-10T14:06:18;13.37;;;10.40;;
7017;SDS011;3549;42.162;24.726;2023-05-10T14:08:43;14.37;;;10.80;;
7017;SDS011;3549;42.162;24.726;2023-05-10T14:11:09;16.10;;;10.53;;
7017;SDS011;3549;42.162;24.726;2023-05-10T14:13:34;14.43;;;10.40;;
7017;SDS011;3549;42.162;24.726;2023-05-10T14:15:59;11.47;;;9.80;;
7017;SDS011;3549;42.162;24.726;2023-05-10T14:18:26;13.60;;;10.33;;
7017;SDS011;3549;42.162;24.726;2023-05-10T14:20:52;16.23;;;11.73;;
7017;SDS011;3549;42.162;24.726;2023-05-10T14:23:17;12.13;;;9.93;;
7017;SDS011;3549;42.162;24.726;2023-05-10T14:25:44;13.83;;;11.07;;
7017;SDS011;3549;42.162;24.726;2023-05-10T14:28:10;13.83;;;10.10;;
7017;SDS011;3549;42.162;24.726;2023-05-10T14:30:37;11.93;;;9.80;;
7017;SDS011;3549;42.162;24.726;2023-05-10T14:33:02;12.40;;;9.87;;
7017;SDS011;3549;42.162;24.726;2023-05-10T14:35:28;12.63;;;10.00;;
7017;SDS011;3549;42.162;24.726;2023-05-10T14:37:55;11.43;;;9.50;;
7017;SDS011;3549;42.162;24.726;2023-05-10T14:40:21;14.40;;;9.63;;
7017;SDS011;3549;42.162;24.726;2023-05-10T14:42:46;12.93;;;9.10;;
7017;SDS011;3549;42.162;24.726;2023-05-10T14:45:12;12.57;;;9.07;;
7017;SDS011;3549;42.162;24.726;2023-05-10T14:47:37;10.57;;;8.30;;
7017;SDS011;3549;42.162;24.726;2023-05-10T14:50:03;11.33;;;8.20;;
7017;SDS011;3549;42.162;24.726;2023-05-10T14:55:50;9.57;;;7.13;;
7017;SDS011;3549;42.162;24.726;2023-05-10T14:58:16;11.20;;;6.87;;
7017;SDS011;3549;42.162;24.726;2023-05-10T15:00:41;8.97;;;7.77;;
7017;SDS011;3549;42.162;24.726;2023-05-10T15:03:07;11.17;;;7.70;;
7017;SDS011;3549;42.162;24.726;2023-05-10T15:05:32;10.10;;;7.80;;
7017;SDS011;3549;42.162;24.726;2023-05-10T15:07:58;10.07;;;7.77;;
7017;SDS011;3549;42.162;24.726;2023-05-10T15:10:23;9.17;;;7.40;;
7017;SDS011;3549;42.162;24.726;2023-05-10T15:12:49;10.97;;;8.43;;
7017;SDS011;3549;42.162;24.726;2023-05-10T15:15:15;11.07;;;8.07;;
7017;SDS011;3549;42.162;24.726;2023-05-10T15:17:40;12.70;;;8.50;;
7017;SDS011;3549;42.162;24.726;2023-05-10T15:20:06;11.17;;;8.33;;
7017;SDS011;3549;42.162;24.726;2023-05-10T15:22:32;9.77;;;8.13;;
7017;SDS011;3549;42.162;24.726;2023-05-10T15:24:58;10.57;;;8.40;;